Terminal Aerodrome Forecast
Issued by NWS Portland, OR

Home | Current Version | Previous Version | Text Only | Print | Product List | Glossary On
Versions: 1 2 3 4 5 6 7 8 9 10 11 12 13 14 15 16 17 18
000
FTUS46 KPQR 190521
TAFAST
TAF
KAST 190521Z 1906/2006 12005KT P6SM OVC200
     FM191100 13010G20KT P6SM SCT030 OVC060
     FM191500 15015G25KT P6SM -RA BKN025 OVC040
     FM200100 23010KT P6SM BKN050=

USA.gov is the U.S. government's official web portal to all federal, state and local government web resources and services.